createdAt,value
2023-01-19T00:02:02.557Z,88.68
2023-01-19T00:04:12.501Z,88.78
2023-01-19T00:06:22.873Z,89.00
2023-01-19T00:08:32.796Z,88.80
2023-01-19T00:10:42.919Z,88.62
2023-01-19T00:12:52.906Z,88.32
2023-01-19T00:15:03.328Z,87.66
2023-01-19T00:17:13.066Z,87.59
2023-01-19T00:19:23.057Z,87.33
2023-01-19T00:21:33.050Z,87.66
2023-01-19T00:23:43.263Z,87.81
2023-01-19T00:25:53.858Z,87.79
2023-01-19T00:28:04.026Z,87.94
2023-01-19T00:30:15.759Z,88.28
2023-01-19T00:32:25.586Z,88.12
2023-01-19T00:34:40.270Z,87.95
2023-01-19T00:36:49.977Z,88.11
2023-01-19T00:39:00.238Z,88.45
2023-01-19T00:41:10.726Z,88.62
2023-01-19T00:43:20.816Z,88.98
2023-01-19T00:45:30.808Z,89.09
2023-01-19T00:47:40.988Z,88.97
2023-01-19T00:49:51.416Z,89.13
2023-01-19T00:52:01.510Z,88.93
2023-01-19T00:54:11.596Z,89.10
2023-01-19T00:56:21.836Z,89.17
2023-01-19T00:58:31.578Z,88.94
2023-01-19T01:00:42.170Z,89.03
2023-01-19T01:02:53.370Z,89.06
2023-01-19T01:05:03.880Z,88.86
2023-01-19T01:07:14.441Z,88.78
2023-01-19T01:09:24.986Z,89.07
2023-01-19T01:11:35.594Z,89.40
2023-01-19T01:13:45.628Z,89.59
2023-01-19T01:15:56.178Z,89.65
2023-01-19T01:18:05.907Z,89.22
2023-01-19T01:20:18.687Z,88.95
2023-01-19T01:22:29.496Z,88.76
2023-01-19T01:24:40.058Z,88.86
2023-01-19T01:26:50.610Z,88.90
2023-01-19T01:29:00.481Z,88.89
2023-01-19T01:31:10.624Z,89.08
2023-01-19T01:33:40.519Z,89.37
2023-01-19T01:35:52.607Z,89.38
2023-01-19T01:38:04.104Z,89.61
2023-01-19T01:40:18.683Z,89.61
2023-01-19T01:42:32.315Z,89.87
2023-01-19T01:44:54.776Z,89.82
2023-01-19T01:47:05.449Z,89.95
2023-01-19T01:49:18.936Z,90.15
2023-01-19T01:51:32.769Z,90.03
2023-01-19T01:53:43.907Z,90.18
2023-01-19T01:55:54.306Z,90.51
2023-01-19T01:58:08.478Z,90.37
2023-01-19T02:00:19.718Z,90.09
2023-01-19T02:02:53.007Z,90.35
2023-01-19T02:05:07.366Z,90.46
2023-01-19T02:07:39.549Z,90.52
2023-01-19T02:10:06.919Z,90.23
2023-01-19T02:12:35.178Z,90.29
2023-01-19T02:14:45.335Z,90.47
2023-01-19T02:16:55.512Z,90.58
2023-01-19T02:19:05.536Z,90.54
2023-01-19T02:21:20.510Z,90.28
2023-01-19T02:23:43.305Z,90.42
2023-01-19T02:25:54.771Z,90.36
2023-01-19T02:28:05.937Z,90.59
2023-01-19T02:30:18.884Z,90.73
2023-01-19T02:32:29.467Z,90.96
2023-01-19T02:34:39.765Z,90.94
2023-01-19T02:36:54.565Z,90.66
2023-01-19T02:39:05.981Z,90.57
2023-01-19T02:41:19.276Z,90.74
2023-01-19T02:43:30.687Z,90.73
2023-01-19T02:45:41.552Z,90.67
2023-01-19T02:47:53.816Z,90.67
2023-01-19T02:50:05.023Z,90.39
2023-01-19T02:52:19.994Z,90.15
2023-01-19T02:54:50.505Z,90.10
2023-01-19T02:57:19.926Z,90.31
2023-01-19T02:59:41.086Z,90.13
2023-01-19T03:02:09.533Z,89.81
2023-01-19T03:04:30.097Z,90.17
2023-01-19T03:06:51.548Z,90.27
2023-01-19T03:09:05.187Z,90.35
2023-01-19T03:11:16.590Z,90.34
2023-01-19T03:13:33.855Z,90.32
2023-01-19T03:15:50.049Z,90.45
2023-01-19T03:18:03.296Z,90.74
2023-01-19T03:20:17.721Z,90.60
2023-01-19T03:22:31.326Z,90.88
2023-01-19T03:24:45.019Z,90.99
2023-01-19T03:26:59.886Z,91.09
2023-01-19T03:29:13.486Z,91.24
2023-01-19T03:31:26.506Z,91.25
2023-01-19T03:33:39.525Z,91.30
2023-01-19T03:35:55.186Z,91.39
2023-01-19T03:38:09.068Z,91.39
2023-01-19T03:40:20.027Z,91.22
2023-01-19T03:42:31.547Z,91.33
2023-01-19T03:44:44.217Z,91.34
2023-01-19T03:46:54.676Z,91.24
2023-01-19T03:49:05.174Z,91.28
2023-01-19T03:51:16.017Z,91.35
2023-01-19T03:53:26.171Z,91.44
2023-01-19T03:55:36.507Z,91.26
2023-01-19T03:57:46.447Z,91.21
2023-01-19T03:59:56.475Z,91.37
2023-01-19T04:02:06.554Z,91.35
2023-01-19T04:04:16.818Z,91.33
2023-01-19T04:06:27.527Z,91.39
2023-01-19T04:08:37.326Z,91.22
2023-01-19T04:10:47.407Z,91.41
2023-01-19T04:13:03.696Z,91.53
2023-01-19T04:15:14.142Z,91.44
2023-01-19T04:17:24.009Z,91.47
2023-01-19T04:19:34.566Z,91.67
2023-01-19T04:21:44.661Z,91.69
2023-01-19T04:23:55.126Z,91.81
2023-01-19T04:26:06.630Z,91.70
2023-01-19T04:28:17.386Z,91.65
2023-01-19T04:30:27.936Z,91.67
2023-01-19T04:32:38.049Z,91.72
2023-01-19T04:34:48.046Z,91.64
2023-01-19T04:36:57.744Z,91.55
2023-01-19T04:39:09.536Z,91.48
2023-01-19T04:41:19.436Z,91.43
2023-01-19T04:43:29.238Z,91.35
2023-01-19T04:45:39.790Z,91.36
2023-01-19T04:47:50.569Z,91.37
2023-01-19T04:50:00.393Z,91.34
2023-01-19T04:52:10.469Z,91.31
2023-01-19T04:54:20.801Z,91.38
2023-01-19T04:56:31.650Z,91.58
2023-01-19T04:58:41.625Z,91.52
2023-01-19T05:00:52.647Z,91.61
2023-01-19T05:03:03.119Z,91.44
2023-01-19T05:05:14.215Z,91.56
2023-01-19T05:07:25.907Z,91.46
2023-01-19T05:09:35.868Z,91.41
2023-01-19T05:11:45.825Z,91.34
2023-01-19T05:13:55.975Z,91.29
2023-01-19T05:16:07.171Z,91.35
2023-01-19T05:18:16.747Z,91.47
2023-01-19T05:20:26.607Z,91.46
2023-01-19T05:22:36.599Z,91.43
2023-01-19T05:24:46.994Z,91.26
2023-01-19T05:26:56.956Z,91.33
2023-01-19T05:29:06.870Z,91.42
2023-01-19T05:31:18.653Z,91.61
2023-01-19T05:33:29.539Z,91.61
2023-01-19T05:35:39.286Z,91.87
2023-01-19T05:37:49.268Z,91.76
2023-01-19T05:39:59.997Z,91.91
2023-01-19T05:42:10.465Z,91.94
2023-01-19T05:44:20.856Z,91.60
2023-01-19T05:46:31.052Z,91.70
2023-01-19T05:48:40.865Z,91.74
2023-01-19T05:50:50.779Z,92.06
2023-01-19T05:53:00.854Z,92.11
2023-01-19T05:55:14.018Z,92.19
2023-01-19T05:57:25.245Z,92.22
2023-01-19T05:59:35.760Z,92.21
2023-01-19T06:01:46.223Z,92.12
2023-01-19T06:03:56.448Z,92.14
2023-01-19T06:06:07.395Z,92.32
2023-01-19T06:08:17.360Z,92.29
2023-01-19T06:10:27.199Z,92.17
2023-01-19T06:12:38.076Z,92.25
2023-01-19T06:14:48.266Z,92.39
2023-01-19T06:16:58.305Z,92.17
2023-01-19T06:19:08.442Z,92.04
2023-01-19T06:21:18.995Z,92.03
2023-01-19T06:23:29.247Z,92.14
2023-01-19T06:25:39.087Z,92.11
2023-01-19T06:27:52.010Z,92.27
2023-01-19T06:30:01.958Z,92.13
2023-01-19T06:32:12.289Z,92.01
2023-01-19T06:34:22.128Z,92.23
2023-01-19T06:36:31.979Z,92.17
2023-01-19T06:38:42.127Z,92.02
2023-01-19T06:40:58.934Z,92.05
2023-01-19T06:43:09.985Z,92.03
2023-01-19T06:45:20.806Z,92.10
2023-01-19T06:47:30.931Z,92.17
2023-01-19T06:49:41.306Z,92.11
2023-01-19T06:51:51.357Z,92.27
2023-01-19T06:54:01.689Z,92.12
2023-01-19T06:56:12.931Z,92.01
2023-01-19T06:58:23.346Z,91.88
2023-01-19T07:00:33.709Z,91.79
2023-01-19T07:02:45.251Z,91.66
2023-01-19T07:04:55.015Z,91.69
2023-01-19T07:07:04.938Z,91.77
2023-01-19T07:09:16.858Z,91.66
2023-01-19T07:11:32.799Z,91.66
2023-01-19T07:13:45.307Z,91.68
2023-01-19T07:15:55.583Z,91.65
2023-01-19T07:18:08.156Z,91.60
2023-01-19T07:20:15.985Z,91.64
2023-01-19T07:22:25.886Z,91.71
2023-01-19T07:24:36.396Z,91.71
2023-01-19T07:26:46.247Z,91.83
2023-01-19T07:28:56.350Z,91.84
2023-01-19T07:31:06.952Z,91.71
2023-01-19T07:33:17.311Z,91.57
2023-01-19T07:35:27.865Z,91.78
2023-01-19T07:37:38.220Z,91.91
2023-01-19T07:39:48.452Z,91.86
2023-01-19T07:41:58.928Z,91.93
2023-01-19T07:44:09.297Z,91.93
2023-01-19T07:46:19.151Z,91.84
2023-01-19T07:48:29.073Z,91.82
2023-01-19T07:50:39.049Z,91.75
2023-01-19T07:52:51.207Z,91.69
2023-01-19T07:55:00.828Z,91.82
2023-01-19T07:57:11.156Z,91.86
2023-01-19T07:59:21.392Z,91.89
2023-01-19T08:01:31.974Z,91.87
2023-01-19T08:03:43.126Z,91.98
2023-01-19T08:05:57.522Z,92.06
2023-01-19T08:08:08.157Z,91.77
2023-01-19T08:10:19.256Z,91.83
2023-01-19T08:12:29.175Z,91.85
2023-01-19T08:14:39.485Z,91.92
2023-01-19T08:16:50.285Z,91.90
2023-01-19T08:19:00.111Z,91.82
2023-01-19T08:21:10.292Z,91.73
2023-01-19T08:23:20.696Z,91.86
2023-01-19T08:25:34.075Z,91.98
2023-01-19T08:27:44.087Z,92.01
2023-01-19T08:29:54.846Z,91.97
2023-01-19T08:32:05.627Z,91.94
2023-01-19T08:34:15.668Z,92.01
2023-01-19T08:36:25.787Z,91.90
2023-01-19T08:38:40.125Z,91.77
2023-01-19T08:40:50.536Z,91.72
2023-01-19T08:43:08.521Z,91.77
2023-01-19T08:45:18.529Z,91.91
2023-01-19T08:47:28.582Z,91.80
2023-01-19T08:49:38.436Z,91.69
2023-01-19T08:51:49.429Z,91.76
2023-01-19T08:53:59.347Z,91.87
2023-01-19T08:56:13.135Z,91.77
2023-01-19T08:58:22.986Z,91.72
2023-01-19T09:00:34.027Z,91.68
2023-01-19T09:02:44.219Z,91.77
2023-01-19T09:04:54.115Z,91.94
2023-01-19T09:09:18.916Z,91.98
2023-01-19T09:11:29.165Z,91.96
2023-01-19T09:13:39.017Z,91.97
2023-01-19T09:15:49.197Z,92.18
2023-01-19T09:18:00.027Z,92.12
2023-01-19T09:20:13.147Z,92.28
2023-01-19T09:22:23.505Z,92.37
2023-01-19T09:24:35.607Z,92.25
2023-01-19T09:26:45.886Z,92.44
2023-01-19T09:28:56.216Z,92.67
2023-01-19T09:31:09.432Z,92.67
2023-01-19T09:33:20.717Z,92.64
2023-01-19T09:35:31.988Z,92.62
2023-01-19T09:37:42.346Z,92.42
2023-01-19T09:39:52.559Z,92.28
2023-01-19T09:42:13.025Z,92.58
2023-01-19T09:44:34.817Z,92.79
2023-01-19T09:46:45.566Z,92.84
2023-01-19T09:48:57.231Z,92.92
2023-01-19T09:51:13.276Z,92.99
2023-01-19T09:53:30.503Z,93.20
2023-01-19T09:55:41.777Z,92.99
2023-01-19T09:57:51.809Z,92.85
2023-01-19T10:00:01.849Z,92.96
2023-01-19T10:02:35.499Z,93.01
2023-01-19T10:04:53.101Z,92.96
2023-01-19T10:07:22.396Z,93.19
2023-01-19T10:09:40.055Z,93.34
2023-01-19T10:11:54.317Z,93.51
2023-01-19T10:14:06.071Z,93.55
2023-01-19T10:16:32.367Z,93.64
2023-01-19T10:18:48.741Z,93.55
2023-01-19T10:21:05.548Z,93.68
2023-01-19T10:23:41.603Z,93.83
2023-01-19T10:25:51.800Z,93.79
2023-01-19T10:28:03.162Z,93.99
2023-01-19T10:30:23.574Z,94.07
2023-01-19T10:32:36.353Z,94.27
2023-01-19T10:34:44.207Z,94.28
2023-01-19T10:36:57.622Z,94.44
2023-01-19T10:39:09.932Z,94.41
2023-01-19T10:41:26.468Z,94.32
2023-01-19T10:43:43.825Z,94.20
2023-01-19T10:45:54.637Z,93.89
2023-01-19T10:48:09.375Z,94.02
2023-01-19T10:50:30.056Z,94.06
2023-01-19T10:52:45.088Z,94.20
2023-01-19T10:54:56.342Z,94.24
2023-01-19T10:57:10.289Z,94.16
2023-01-19T10:59:35.654Z,94.23
2023-01-19T11:01:45.536Z,94.06
2023-01-19T11:03:57.702Z,94.05
2023-01-19T11:06:24.137Z,94.08
2023-01-19T11:08:35.056Z,93.94
2023-01-19T11:10:54.345Z,93.99
2023-01-19T11:13:07.935Z,94.01
2023-01-19T11:15:25.844Z,93.99
2023-01-19T11:17:36.568Z,93.83
2023-01-19T11:19:54.450Z,93.74
2023-01-19T11:22:22.249Z,93.55
2023-01-19T11:24:34.256Z,93.21
2023-01-19T11:26:48.325Z,93.28
2023-01-19T11:28:59.918Z,93.02
2023-01-19T11:31:33.351Z,93.07
2023-01-19T11:33:50.939Z,93.46
2023-01-19T11:36:09.867Z,93.67
2023-01-19T11:38:27.672Z,93.68
2023-01-19T11:40:38.255Z,93.74
2023-01-19T11:42:48.381Z,93.87
2023-01-19T11:45:04.946Z,93.85
2023-01-19T11:47:21.015Z,93.86
2023-01-19T11:49:41.222Z,93.82
2023-01-19T11:51:58.250Z,94.08
2023-01-19T11:54:32.488Z,94.09
2023-01-19T11:56:42.581Z,93.93
2023-01-19T11:58:52.948Z,94.01
2023-01-19T12:01:08.528Z,93.90
2023-01-19T12:03:24.576Z,93.87
2023-01-19T12:05:37.734Z,93.87
2023-01-19T12:07:49.841Z,94.00
2023-01-19T12:10:05.941Z,94.01
2023-01-19T12:12:26.230Z,93.92
2023-01-19T12:14:43.216Z,93.79
2023-01-19T12:16:55.322Z,93.68
2023-01-19T12:19:08.585Z,93.71
2023-01-19T12:21:19.553Z,93.90
2023-01-19T12:23:37.567Z,93.97
2023-01-19T12:25:55.465Z,94.26
2023-01-19T12:28:07.247Z,94.33
2023-01-19T12:30:23.618Z,94.35
2023-01-19T12:32:39.356Z,94.43
2023-01-19T12:34:50.527Z,94.67
2023-01-19T12:37:04.470Z,94.51
2023-01-19T12:39:21.747Z,94.32
2023-01-19T12:41:34.322Z,94.42
2023-01-19T12:43:44.558Z,94.38
2023-01-19T12:45:54.595Z,94.40
2023-01-19T12:48:05.836Z,94.22
2023-01-19T12:50:23.807Z,94.38
2023-01-19T12:52:42.006Z,94.57
2023-01-19T12:55:03.879Z,94.88
2023-01-19T12:57:26.925Z,94.70
2023-01-19T12:59:39.247Z,94.65
2023-01-19T13:02:25.892Z,94.61
2023-01-19T13:04:36.589Z,94.67
2023-01-19T13:07:18.519Z,94.69
2023-01-19T13:09:35.905Z,94.66
2023-01-19T13:12:21.364Z,94.61
2023-01-19T13:14:39.106Z,94.65
2023-01-19T13:17:20.793Z,94.55
2023-01-19T13:19:53.470Z,94.73
2023-01-19T13:22:23.375Z,94.69
2023-01-19T13:25:09.678Z,94.78
2023-01-19T13:27:19.456Z,94.75
2023-01-19T13:29:34.396Z,94.90
2023-01-19T13:31:46.502Z,94.83
2023-01-19T13:33:58.394Z,94.86
2023-01-19T13:36:17.447Z,94.78
2023-01-19T13:38:29.671Z,94.73
2023-01-19T13:40:42.036Z,95.08
2023-01-19T13:42:53.726Z,95.05
2023-01-19T13:45:08.037Z,95.19
2023-01-19T13:47:24.333Z,95.42
2023-01-19T13:49:37.707Z,95.23
2023-01-19T13:51:49.569Z,95.31
2023-01-19T13:54:01.995Z,95.29
2023-01-19T13:56:21.032Z,95.27
2023-01-19T13:58:32.551Z,94.98
2023-01-19T14:00:47.450Z,94.95
2023-01-19T14:03:00.656Z,94.98
2023-01-19T14:05:23.336Z,94.72
2023-01-19T14:07:33.807Z,94.85
2023-01-19T14:09:44.074Z,94.90
2023-01-19T14:12:13.350Z,94.92
2023-01-19T14:14:33.504Z,94.66
2023-01-19T14:16:43.715Z,94.71
2023-01-19T14:19:05.178Z,94.74
2023-01-19T14:21:16.656Z,94.70
2023-01-19T14:23:48.897Z,94.77
2023-01-19T14:25:59.207Z,94.69
2023-01-19T14:28:39.215Z,94.81
2023-01-19T14:30:59.462Z,94.66
2023-01-19T14:33:14.995Z,94.61
2023-01-19T14:35:30.506Z,94.62
2023-01-19T14:37:47.665Z,94.74
2023-01-19T14:40:01.329Z,94.77
2023-01-19T14:42:17.590Z,94.67
2023-01-19T14:44:33.110Z,94.82
2023-01-19T14:46:49.962Z,94.71
2023-01-19T14:49:04.787Z,94.79
2023-01-19T14:51:21.865Z,94.59
2023-01-19T14:53:38.008Z,94.74
2023-01-19T14:55:52.120Z,94.79
2023-01-19T14:58:01.697Z,94.88
2023-01-19T15:00:22.193Z,94.86
2023-01-19T15:02:32.082Z,94.97
2023-01-19T15:04:42.135Z,94.79
2023-01-19T15:06:52.376Z,94.70
2023-01-19T15:09:02.235Z,94.65
2023-01-19T15:11:14.956Z,94.67
2023-01-19T15:13:26.336Z,94.41
2023-01-19T15:15:37.307Z,94.33
2023-01-19T15:17:47.344Z,94.41
2023-01-19T15:19:58.162Z,94.21
2023-01-19T15:22:15.526Z,94.09
2023-01-19T15:24:26.066Z,94.26
2023-01-19T15:26:35.956Z,94.35
2023-01-19T15:28:45.591Z,94.49
2023-01-19T15:30:55.894Z,94.45
2023-01-19T15:33:05.908Z,94.45
2023-01-19T15:35:21.126Z,94.29
2023-01-19T15:37:31.147Z,94.35
2023-01-19T15:39:41.416Z,94.38
2023-01-19T15:41:51.926Z,94.28
2023-01-19T15:44:02.276Z,94.47
2023-01-19T15:46:16.262Z,94.65
2023-01-19T15:48:26.200Z,95.02
2023-01-19T15:50:37.705Z,95.09
2023-01-19T15:52:47.696Z,95.19
2023-01-19T15:54:57.849Z,95.28
2023-01-19T15:57:07.807Z,95.22
2023-01-19T15:59:18.247Z,95.33
2023-01-19T16:01:31.830Z,95.45
2023-01-19T16:03:42.739Z,95.45
2023-01-19T16:05:53.343Z,95.64
2023-01-19T16:08:03.356Z,95.85
2023-01-19T16:10:14.025Z,95.95
2023-01-19T16:12:24.008Z,96.06
2023-01-19T16:14:34.225Z,96.14
2023-01-19T16:16:46.664Z,96.13
2023-01-19T16:18:56.925Z,96.28
2023-01-19T16:21:07.955Z,96.36
2023-01-19T16:23:18.493Z,96.29
2023-01-19T16:25:31.907Z,96.42
2023-01-19T16:27:41.988Z,96.53
2023-01-19T16:29:52.556Z,96.57
2023-01-19T16:32:03.692Z,96.51
2023-01-19T16:34:14.176Z,96.56
2023-01-19T16:36:30.925Z,96.76
2023-01-19T16:38:41.119Z,96.52
2023-01-19T16:40:51.090Z,96.90
2023-01-19T16:43:01.964Z,96.93
2023-01-19T16:45:13.335Z,97.04
2023-01-19T16:47:23.655Z,97.25
2023-01-19T16:49:33.516Z,97.37
2023-01-19T16:51:44.176Z,97.32
2023-01-19T16:53:54.962Z,97.34
2023-01-19T16:56:08.994Z,97.44
2023-01-19T16:58:19.074Z,97.40
2023-01-19T17:00:29.130Z,97.38
2023-01-19T17:02:43.100Z,97.23
2023-01-19T17:04:53.216Z,97.27
2023-01-19T17:07:03.135Z,97.45
2023-01-19T17:09:13.309Z,97.39
2023-01-19T17:11:24.927Z,97.40
2023-01-19T17:13:35.117Z,97.45
2023-01-19T17:15:45.106Z,97.61
2023-01-19T17:17:54.935Z,97.54
2023-01-19T17:20:05.203Z,97.84
2023-01-19T17:22:15.521Z,98.06
2023-01-19T17:24:25.696Z,98.08
2023-01-19T17:26:36.195Z,98.28
2023-01-19T17:28:47.197Z,98.28
2023-01-19T17:30:57.227Z,98.18
2023-01-19T17:33:07.227Z,98.24
2023-01-19T17:35:17.403Z,98.19
2023-01-19T17:37:27.439Z,98.22
2023-01-19T17:39:38.288Z,98.21
2023-01-19T17:41:50.241Z,98.17
2023-01-19T17:44:01.487Z,98.16
2023-01-19T17:46:11.842Z,98.17
2023-01-19T17:48:21.839Z,98.22
2023-01-19T17:50:32.028Z,98.26
2023-01-19T17:52:41.966Z,98.31
2023-01-19T17:54:51.796Z,98.39
2023-01-19T17:57:01.453Z,98.48
2023-01-19T17:59:11.822Z,98.52
2023-01-19T18:01:23.536Z,98.57
2023-01-19T18:03:33.266Z,98.61
2023-01-19T18:05:43.116Z,98.64
2023-01-19T18:07:53.108Z,98.79
2023-01-19T18:10:02.769Z,98.84
2023-01-19T18:12:12.934Z,98.79
2023-01-19T18:14:22.809Z,98.80
2023-01-19T18:16:33.565Z,98.90
2023-01-19T18:18:44.533Z,99.03
2023-01-19T18:20:54.660Z,99.25
2023-01-19T18:23:04.428Z,99.43
2023-01-19T18:25:14.956Z,99.49
2023-01-19T18:27:25.557Z,99.82
2023-01-19T18:29:36.095Z,100.00
2023-01-19T18:31:46.053Z,100.00
2023-01-19T18:33:56.482Z,100.00
2023-01-19T18:36:09.603Z,100.00
2023-01-19T18:38:19.765Z,100.00
2023-01-19T18:40:30.435Z,100.00
2023-01-19T18:42:40.865Z,100.00
2023-01-19T18:44:51.470Z,100.00
2023-01-19T18:47:01.695Z,100.00
2023-01-19T18:49:12.088Z,100.00
2023-01-19T18:51:22.369Z,100.00
2023-01-19T18:53:32.857Z,100.00
2023-01-19T18:55:52.048Z,100.00
2023-01-19T18:58:02.101Z,100.00
2023-01-19T19:00:15.089Z,100.00
2023-01-19T19:02:25.638Z,100.00
2023-01-19T19:04:35.665Z,100.00
2023-01-19T19:06:45.625Z,100.00
2023-01-19T19:08:56.528Z,100.00
2023-01-19T19:11:08.845Z,99.92
2023-01-19T19:13:18.131Z,99.85
2023-01-19T19:15:28.699Z,99.95
2023-01-19T19:17:40.476Z,100.00
2023-01-19T19:19:50.665Z,100.00
2023-01-19T19:22:03.693Z,100.00
2023-01-19T19:24:16.382Z,100.00
2023-01-19T19:26:28.413Z,99.84
2023-01-19T19:28:39.858Z,99.83
2023-01-19T19:30:52.910Z,99.54
2023-01-19T19:33:02.731Z,98.84
2023-01-19T19:35:15.938Z,98.61
2023-01-19T19:37:26.266Z,99.05
2023-01-19T19:39:38.697Z,98.83
2023-01-19T19:41:49.295Z,98.49
2023-01-19T19:43:59.259Z,98.15
2023-01-19T19:46:11.141Z,97.98
2023-01-19T19:48:21.047Z,97.85
2023-01-19T19:50:31.378Z,97.84
2023-01-19T19:52:45.022Z,97.57
2023-01-19T19:54:56.759Z,97.42
2023-01-19T19:57:06.615Z,97.20
2023-01-19T19:59:16.417Z,96.97
2023-01-19T20:01:32.359Z,96.89
2023-01-19T20:03:43.767Z,96.73
2023-01-19T20:05:53.615Z,95.97
2023-01-19T20:08:03.246Z,95.71
2023-01-19T20:10:14.881Z,95.67
2023-01-19T20:12:25.286Z,95.12
2023-01-19T20:14:36.132Z,94.95
2023-01-19T20:16:46.544Z,94.84
2023-01-19T20:18:56.853Z,95.01
2023-01-19T20:21:16.915Z,95.24
2023-01-19T20:23:27.536Z,95.10
2023-01-19T20:25:40.516Z,94.95
2023-01-19T20:27:50.716Z,94.62
2023-01-19T20:30:00.833Z,93.75
2023-01-19T20:32:11.165Z,92.95
2023-01-19T20:34:23.904Z,92.81
2023-01-19T20:36:34.208Z,92.31
2023-01-19T20:38:45.257Z,92.02
2023-01-19T20:40:55.235Z,91.97
2023-01-19T20:43:06.456Z,92.15
2023-01-19T20:45:16.507Z,91.43
2023-01-19T20:47:27.009Z,91.30
2023-01-19T20:49:37.615Z,91.39
2023-01-19T20:51:47.618Z,90.60
2023-01-19T20:53:57.666Z,90.31
2023-01-19T20:56:10.675Z,90.25
2023-01-19T20:58:20.667Z,89.99
2023-01-19T21:00:30.657Z,89.36
2023-01-19T21:02:40.823Z,89.72
2023-01-19T21:04:51.685Z,89.53
2023-01-19T21:07:01.366Z,89.70
2023-01-19T21:09:12.376Z,89.77
2023-01-19T21:11:24.315Z,89.91
2023-01-19T21:13:34.955Z,89.68
2023-01-19T21:15:45.038Z,89.70
2023-01-19T21:17:55.585Z,89.34
2023-01-19T21:20:05.945Z,89.21
2023-01-19T21:22:15.806Z,88.95
2023-01-19T21:24:26.245Z,88.93
2023-01-19T21:26:36.595Z,88.91
2023-01-19T21:28:46.540Z,88.53
2023-01-19T21:30:57.506Z,88.35
2023-01-19T21:33:08.346Z,88.02
2023-01-19T21:35:18.445Z,87.96
2023-01-19T21:37:30.824Z,88.09
2023-01-19T21:39:40.984Z,88.10
2023-01-19T21:41:51.646Z,87.95
2023-01-19T21:44:01.777Z,88.15
2023-01-19T21:46:15.647Z,87.81
2023-01-19T21:48:26.198Z,87.80
2023-01-19T21:50:36.365Z,87.79
2023-01-19T21:52:46.382Z,87.26
2023-01-19T21:54:56.250Z,87.80
2023-01-19T21:57:06.476Z,87.83
2023-01-19T21:59:19.691Z,87.59
2023-01-19T22:01:30.401Z,87.76
2023-01-19T22:03:40.510Z,87.66
2023-01-19T22:05:50.587Z,87.34
2023-01-19T22:08:01.616Z,87.33
2023-01-19T22:10:14.116Z,87.15
2023-01-19T22:12:21.640Z,87.29
2023-01-19T22:14:32.079Z,86.78
2023-01-19T22:16:42.122Z,85.53
2023-01-19T22:18:55.076Z,85.41
2023-01-19T22:21:13.640Z,85.10
2023-01-19T22:23:23.471Z,84.96
2023-01-19T22:25:34.457Z,84.85
2023-01-19T22:27:44.446Z,84.80
2023-01-19T22:29:55.037Z,84.79
2023-01-19T22:32:04.926Z,84.78
2023-01-19T22:34:17.699Z,84.86
2023-01-19T22:36:29.767Z,84.88
2023-01-19T22:38:40.261Z,85.02
2023-01-19T22:40:50.520Z,85.09
2023-01-19T22:43:00.358Z,84.67
2023-01-19T22:45:12.204Z,84.50
2023-01-19T22:47:22.355Z,84.66
2023-01-19T22:49:33.087Z,84.14
2023-01-19T22:51:43.346Z,84.27
2023-01-19T22:53:53.473Z,83.76
2023-01-19T22:56:11.366Z,83.81
2023-01-19T22:58:22.175Z,84.16
2023-01-19T23:00:32.157Z,84.09
2023-01-19T23:02:42.266Z,84.18
2023-01-19T23:04:52.237Z,84.02
2023-01-19T23:07:02.182Z,84.26
2023-01-19T23:09:16.253Z,84.29
2023-01-19T23:11:28.175Z,84.15
2023-01-19T23:13:38.095Z,84.11
2023-01-19T23:15:48.216Z,83.83
2023-01-19T23:17:58.376Z,83.72
2023-01-19T23:20:10.174Z,83.57
2023-01-19T23:22:20.414Z,83.50
2023-01-19T23:24:31.117Z,83.27
2023-01-19T23:26:41.343Z,83.08
2023-01-19T23:28:55.145Z,83.29
2023-01-19T23:31:14.209Z,83.28
2023-01-19T23:33:24.812Z,83.17
2023-01-19T23:35:36.080Z,83.09
2023-01-19T23:37:46.123Z,83.07
2023-01-19T23:39:56.099Z,82.93
2023-01-19T23:42:08.640Z,83.08
2023-01-19T23:44:19.023Z,83.27
2023-01-19T23:46:29.000Z,83.47
2023-01-19T23:48:39.776Z,83.39
2023-01-19T23:50:50.080Z,83.65
2023-01-19T23:53:00.114Z,83.98
2023-01-19T23:55:12.079Z,83.89
2023-01-19T23:57:22.606Z,83.82
2023-01-19T23:59:32.523Z,83.77
